Time;durP1;ratioP1;P1;durP2;ratioP2;P2;SDS_P1;SDS_P2;PMS_P1;PMS_P2;Temp;Humidity;BMP_temperature;BMP_pressure;BME280_temperature;BME280_humidity;BME280_pressure;Samples;Min_cycle;Max_cycle;Signal;HPM_P1;HPM_P2
2022/07/01 00:02:04;;;;;;;8.50;7.70;;;16.70;96.60;;;;;;5024837;28;20071;-78
2022/07/01 00:04:30;;;;;;;5.93;4.43;;;16.70;95.00;;;;;;5022176;28;20029;-78
2022/07/01 00:06:56;;;;;;;7.38;6.47;;;16.70;95.90;;;;;;5023909;28;20036;-76
2022/07/01 00:09:22;;;;;;;6.32;5.72;;;16.60;95.60;;;;;;5037372;28;20049;-78
2022/07/01 00:11:47;;;;;;;7.95;5.13;;;16.70;95.50;;;;;;5035381;28;20034;-76
2022/07/01 00:14:13;;;;;;;10.52;6.10;;;16.50;96.10;;;;;;5040479;28;20037;-79
2022/07/01 00:16:38;;;;;;;8.07;6.10;;;16.50;96.80;;;;;;5024984;28;20033;-78
2022/07/01 00:19:04;;;;;;;5.68;4.82;;;16.30;96.40;;;;;;5023043;28;20040;-79
2022/07/01 00:21:30;;;;;;;9.68;8.65;;;16.40;96.60;;;;;;5052722;28;20118;-78
2022/07/01 00:23:55;;;;;;;9.88;7.03;;;16.50;96.80;;;;;;5017855;28;20033;-75
2022/07/01 00:26:21;;;;;;;8.18;6.28;;;16.40;95.90;;;;;;5055160;28;20175;-78
2022/07/01 00:28:47;;;;;;;10.65;6.68;;;16.30;96.60;;;;;;5041307;28;20032;-78
2022/07/01 00:31:12;;;;;;;14.25;10.90;;;16.40;96.80;;;;;;5055749;28;20029;-77
2022/07/01 00:33:38;;;;;;;10.98;8.40;;;16.30;96.60;;;;;;5021226;28;20033;-77
2022/07/01 00:36:03;;;;;;;11.35;9.10;;;16.30;97.20;;;;;;5028510;28;20122;-78
2022/07/01 00:38:29;;;;;;;10.75;9.55;;;16.10;95.80;;;;;;5060050;28;20252;-79
2022/07/01 00:40:55;;;;;;;8.10;7.13;;;16.20;96.80;;;;;;5059330;28;20028;-78
2022/07/01 00:43:24;;;;;;;15.45;11.50;;;16.20;97.20;;;;;;5057949;28;20048;-77
2022/07/01 00:45:50;;;;;;;15.00;11.43;;;16.20;96.70;;;;;;5030556;28;20029;-78
2022/07/01 00:48:16;;;;;;;11.07;8.32;;;16.10;96.50;;;;;;5043608;28;20037;-79
2022/07/01 00:50:42;;;;;;;8.73;7.32;;;16.10;97.00;;;;;;5023209;28;20048;-78
2022/07/01 00:53:08;;;;;;;9.18;7.43;;;16.20;97.10;;;;;;5008176;28;20389;-79
2022/07/01 00:55:33;;;;;;;9.85;8.40;;;16.20;97.00;;;;;;5058626;28;20025;-78
2022/07/01 00:57:59;;;;;;;8.30;7.50;;;16.10;97.50;;;;;;5045400;28;20033;-77
2022/07/01 01:00:26;;;;;;;14.07;10.18;;;16.20;97.30;;;;;;5027239;28;20033;-78
2022/07/01 01:02:52;;;;;;;10.48;8.27;;;16.20;97.30;;;;;;5028879;28;20037;-78
2022/07/01 01:05:17;;;;;;;11.18;9.60;;;16.10;97.40;;;;;;5044811;28;20488;-78
2022/07/01 01:07:43;;;;;;;9.35;8.02;;;16.10;97.90;;;;;;5044265;28;20021;-77
2022/07/01 01:10:09;;;;;;;11.93;8.38;;;16.20;97.80;;;;;;5046770;28;20076;-78
2022/07/01 01:12:34;;;;;;;16.48;14.10;;;16.10;97.80;;;;;;5027902;28;20055;-80
2022/07/01 01:15:00;;;;;;;14.80;11.85;;;16.00;96.90;;;;;;5011331;28;20033;-77
2022/07/01 01:17:26;;;;;;;11.48;10.25;;;16.10;97.30;;;;;;5062628;28;20087;-77
2022/07/01 01:19:51;;;;;;;11.07;9.65;;;16.20;97.30;;;;;;5027442;28;20025;-77
2022/07/01 01:22:17;;;;;;;11.10;9.82;;;16.20;97.70;;;;;;5045113;28;20424;-79
2022/07/01 01:24:45;;;;;;;10.43;9.23;;;16.20;97.70;;;;;;5028814;28;20484;-78
2022/07/01 01:27:11;;;;;;;10.32;9.15;;;16.20;97.90;;;;;;5022146;28;20036;-77
2022/07/01 01:29:37;;;;;;;12.75;9.45;;;16.40;97.90;;;;;;5026953;28;20041;-77
2022/07/01 01:32:03;;;;;;;13.27;10.85;;;16.40;97.50;;;;;;5009523;28;20029;-76
2022/07/01 01:34:29;;;;;;;8.93;7.75;;;16.30;97.70;;;;;;5045701;28;20025;-78
2022/07/01 01:36:55;;;;;;;9.20;7.85;;;16.20;98.00;;;;;;5025443;28;20041;-77
2022/07/01 01:39:20;;;;;;;10.68;9.57;;;16.50;98.00;;;;;;5042614;28;20057;-77
2022/07/01 01:41:46;;;;;;;9.38;8.07;;;16.60;98.00;;;;;;5041590;28;20040;-79
2022/07/01 01:44:12;;;;;;;8.32;7.40;;;16.40;98.10;;;;;;5027533;28;20090;-79
2022/07/01 01:46:38;;;;;;;8.05;6.85;;;16.40;98.10;;;;;;5024512;28;20037;-79
2022/07/01 01:49:05;;;;;;;10.32;6.90;;;16.40;98.60;;;;;;5029879;28;20032;-78
2022/07/01 01:51:31;;;;;;;6.70;5.72;;;16.50;98.10;;;;;;5025276;28;20045;-79
2022/07/01 01:53:57;;;;;;;8.40;7.57;;;16.30;98.10;;;;;;5043987;28;20037;-78
2022/07/01 01:56:23;;;;;;;9.30;7.40;;;16.20;99.10;;;;;;5042496;28;20051;-78
2022/07/01 01:58:49;;;;;;;8.55;6.40;;;16.10;98.90;;;;;;5024009;28;20025;-79
2022/07/01 02:01:15;;;;;;;5.95;5.35;;;16.10;99.00;;;;;;5057079;28;20032;-78
2022/07/01 02:03:41;;;;;;;9.63;6.38;;;16.20;99.00;;;;;;5028245;28;20033;-78
2022/07/01 02:06:09;;;;;;;8.68;6.00;;;16.20;98.60;;;;;;5012769;28;20067;-78
2022/07/01 02:08:35;;;;;;;8.48;6.93;;;16.20;98.90;;;;;;5040678;28;20095;-79
2022/07/01 02:11:00;;;;;;;5.95;5.35;;;16.10;98.60;;;;;;5023908;28;20559;-78
2022/07/01 02:13:26;;;;;;;9.68;6.22;;;16.20;98.60;;;;;;5029524;28;20021;-79
2022/07/01 02:15:52;;;;;;;7.95;5.78;;;16.30;98.50;;;;;;5042081;28;20036;-78
2022/07/01 02:18:17;;;;;;;9.57;6.38;;;16.10;98.90;;;;;;5060828;28;20389;-78
2022/07/01 02:20:43;;;;;;;8.68;6.00;;;16.10;99.10;;;;;;5015874;28;20026;-78
2022/07/01 02:23:08;;;;;;;5.60;4.47;;;16.00;98.80;;;;;;5028252;28;20071;-79
2022/07/01 02:25:35;;;;;;;6.85;4.60;;;16.20;99.20;;;;;;5028705;28;20036;-79
2022/07/01 02:28:01;;;;;;;7.40;4.72;;;16.10;99.30;;;;;;5020490;28;20079;-79
2022/07/01 02:30:27;;;;;;;8.82;6.32;;;16.10;99.10;;;;;;5056830;28;20034;-79
2022/07/01 02:32:52;;;;;;;10.73;6.13;;;16.00;99.00;;;;;;5025305;28;20033;-78
2022/07/01 02:35:18;;;;;;;7.75;5.28;;;16.00;98.60;;;;;;5056338;28;20113;-78
2022/07/01 02:37:44;;;;;;;6.20;4.70;;;15.90;99.10;;;;;;5042534;28;20064;-77
2022/07/01 02:40:10;;;;;;;8.73;5.50;;;15.90;99.90;;;;;;5009316;28;20468;-78
2022/07/01 02:42:35;;;;;;;11.23;6.43;;;16.00;99.60;;;;;;5037117;28;20040;-78
2022/07/01 02:45:04;;;;;;;8.55;5.68;;;16.00;99.90;;;;;;5022332;28;20028;-78
2022/07/01 02:47:34;;;;;;;8.10;5.53;;;15.90;99.90;;;;;;5023696;28;20124;-76
2022/07/01 02:50:00;;;;;;;8.23;4.72;;;15.90;99.90;;;;;;5025229;28;20033;-79
2022/07/01 02:52:26;;;;;;;7.15;5.10;;;15.80;99.90;;;;;;5040612;28;20045;-78
2022/07/01 02:54:52;;;;;;;5.93;4.18;;;15.80;99.80;;;;;;5024703;28;20059;-78
2022/07/01 02:57:17;;;;;;;9.63;6.50;;;15.80;99.60;;;;;;5057806;28;20041;-78
2022/07/01 02:59:43;;;;;;;7.97;5.32;;;15.90;99.90;;;;;;5043728;28;20044;-78
2022/07/01 03:02:09;;;;;;;6.95;4.32;;;15.90;99.90;;;;;;5035934;28;20040;-78
2022/07/01 03:04:34;;;;;;;7.75;4.28;;;15.90;99.90;;;;;;5055838;28;20029;-78
2022/07/01 03:07:00;;;;;;;9.82;5.68;;;15.80;99.90;;;;;;5007014;28;20037;-78
2022/07/01 03:09:26;;;;;;;10.25;5.78;;;15.70;99.90;;;;;;5041604;28;20033;-77
2022/07/01 03:11:51;;;;;;;7.65;5.10;;;15.90;99.90;;;;;;5023250;28;20397;-79
2022/07/01 03:14:17;;;;;;;11.30;7.20;;;15.80;99.90;;;;;;5037884;28;20021;-77
2022/07/01 03:16:42;;;;;;;19.45;8.30;;;15.70;99.90;;;;;;5038385;28;20105;-78
2022/07/01 03:19:09;;;;;;;10.65;5.97;;;15.80;99.90;;;;;;5023063;28;20476;-78
2022/07/01 03:21:34;;;;;;;11.45;7.38;;;15.60;99.90;;;;;;5020794;28;20056;-79
2022/07/01 03:24:00;;;;;;;7.25;5.70;;;15.70;99.90;;;;;;5038596;28;20033;-76
2022/07/01 03:26:26;;;;;;;9.73;5.40;;;15.80;99.90;;;;;;5025656;28;20021;-78
2022/07/01 03:28:51;;;;;;;10.93;6.32;;;15.90;99.90;;;;;;5056700;28;20075;-78
2022/07/01 03:31:17;;;;;;;4.53;3.05;;;16.00;99.90;;;;;;5042667;28;20044;-77
2022/07/01 03:33:42;;;;;;;12.07;7.38;;;15.70;99.90;;;;;;5041014;28;20029;-78
2022/07/01 03:36:08;;;;;;;10.50;6.38;;;15.70;99.90;;;;;;5025368;28;20395;-77
2022/07/01 03:38:34;;;;;;;10.05;5.72;;;15.60;99.90;;;;;;5041816;28;20552;-78
2022/07/01 03:41:00;;;;;;;8.57;5.75;;;15.50;99.90;;;;;;5041149;28;20112;-78
2022/07/01 03:43:25;;;;;;;9.52;5.82;;;15.60;99.90;;;;;;5055326;28;20103;-78
2022/07/01 03:45:51;;;;;;;11.32;6.32;;;15.70;99.90;;;;;;5052168;28;20374;-78
2022/07/01 03:48:16;;;;;;;7.00;5.55;;;15.80;99.90;;;;;;5054999;28;20420;-78
2022/07/01 03:50:42;;;;;;;12.05;6.43;;;15.80;99.90;;;;;;5036128;28;20090;-77
2022/07/01 03:55:52;;;;;;;6.80;5.68;;;15.80;99.90;;;;;;5039604;28;20519;-77
2022/07/01 03:58:17;;;;;;;9.68;5.47;;;15.70;99.90;;;;;;5038636;28;20030;-78
2022/07/01 04:00:43;;;;;;;11.60;6.95;;;15.60;99.90;;;;;;5039267;28;20396;-78
2022/07/01 04:03:08;;;;;;;9.95;6.22;;;15.50;99.90;;;;;;5022716;28;20033;-79
2022/07/01 04:05:35;;;;;;;11.18;5.50;;;15.60;99.90;;;;;;5038552;28;20440;-77
2022/07/01 04:08:02;;;;;;;11.32;5.53;;;15.70;99.90;;;;;;5024031;28;20083;-77
2022/07/01 04:10:29;;;;;;;7.93;4.95;;;15.70;99.90;;;;;;5058222;28;20036;-78
2022/07/01 04:12:54;;;;;;;9.00;4.85;;;15.70;99.90;;;;;;5012395;28;20033;-77
2022/07/01 04:15:20;;;;;;;9.18;7.32;;;15.80;99.90;;;;;;5040502;28;20526;-77
2022/07/01 04:17:45;;;;;;;11.32;6.45;;;15.80;99.90;;;;;;5026529;28;20534;-78
2022/07/01 04:20:11;;;;;;;6.78;4.93;;;15.70;99.90;;;;;;5040948;28;20074;-77
2022/07/01 04:22:37;;;;;;;6.65;4.75;;;15.60;99.90;;;;;;5060153;28;20128;-76
2022/07/01 04:25:03;;;;;;;11.10;6.40;;;15.40;99.90;;;;;;5027162;28;20029;-78
2022/07/01 04:27:32;;;;;;;9.95;5.03;;;15.40;99.90;;;;;;5027366;28;20403;-78
2022/07/01 04:29:57;;;;;;;11.13;4.88;;;15.50;99.90;;;;;;5037390;28;20115;-78
2022/07/01 04:32:23;;;;;;;11.68;5.88;;;15.50;99.90;;;;;;5059238;28;20482;-76
2022/07/01 04:34:49;;;;;;;5.68;4.43;;;15.50;99.90;;;;;;5060475;28;20025;-77
2022/07/01 04:37:14;;;;;;;7.82;4.65;;;15.60;99.90;;;;;;5043422;28;20043;-78
2022/07/01 04:39:40;;;;;;;7.72;5.65;;;15.70;99.90;;;;;;5043424;28;20041;-77
2022/07/01 04:44:53;;;;;;;8.52;5.00;;;15.70;99.90;;;;;;5109181;22;20519;-73
2022/07/01 04:47:18;;;;;;;8.32;4.85;;;15.70;99.90;;;;;;5045642;28;20094;-73
2022/07/01 04:49:44;;;;;;;9.02;5.88;;;15.80;99.90;;;;;;5025597;28;20025;-74
2022/07/01 04:52:09;;;;;;;7.10;5.10;;;15.70;99.90;;;;;;5028043;28;20033;-74
2022/07/01 04:54:35;;;;;;;9.73;5.55;;;15.80;99.90;;;;;;5022557;28;20029;-73
2022/07/01 04:57:01;;;;;;;7.35;5.03;;;15.70;99.90;;;;;;5024033;28;20496;-74
2022/07/01 04:59:26;;;;;;;9.73;5.43;;;15.50;99.90;;;;;;5023765;28;20021;-74
2022/07/01 05:01:52;;;;;;;12.07;4.90;;;15.60;99.90;;;;;;5008054;28;20029;-73
2022/07/01 05:04:18;;;;;;;8.38;5.93;;;15.60;99.90;;;;;;5005759;28;20108;-73
2022/07/01 05:06:43;;;;;;;7.78;4.88;;;15.70;99.90;;;;;;5017805;28;20520;-74
2022/07/01 05:09:09;;;;;;;10.07;6.47;;;15.70;99.90;;;;;;5008023;28;20025;-74
2022/07/01 05:11:34;;;;;;;9.95;7.03;;;15.70;99.90;;;;;;5024004;28;20515;-73
2022/07/01 05:14:00;;;;;;;8.23;4.90;;;15.60;99.90;;;;;;5008752;28;20462;-73
2022/07/01 05:16:26;;;;;;;5.15;4.22;;;15.60;99.90;;;;;;5007129;28;20092;-74
2022/07/01 05:24:20;;;;;;;8.63;4.15;;;15.60;99.90;;;;;;5023377;28;20098;-75
2022/07/01 05:26:46;;;;;;;5.50;3.40;;;15.70;99.90;;;;;;5002930;28;20056;-73
2022/07/01 05:29:11;;;;;;;6.57;3.83;;;15.70;99.90;;;;;;5008099;28;20029;-73
2022/07/01 05:31:37;;;;;;;6.90;3.67;;;15.70;99.90;;;;;;4993467;28;20021;-74
2022/07/01 05:34:02;;;;;;;6.38;3.47;;;15.70;99.90;;;;;;5038322;28;20033;-73
2022/07/01 05:36:28;;;;;;;6.38;3.78;;;15.80;99.90;;;;;;5009845;28;20063;-73
2022/07/01 05:38:53;;;;;;;5.35;2.92;;;15.70;99.90;;;;;;5019311;28;20029;-73
2022/07/01 05:41:19;;;;;;;3.83;3.03;;;15.70;99.90;;;;;;5009609;28;20025;-72
2022/07/01 05:43:45;;;;;;;5.57;3.03;;;15.70;99.90;;;;;;4992127;28;20048;-72
2022/07/01 05:46:10;;;;;;;4.45;3.25;;;15.80;99.90;;;;;;5021265;28;20056;-72
2022/07/01 05:48:36;;;;;;;8.35;5.65;;;15.80;99.90;;;;;;4989246;28;20104;-72
2022/07/01 05:51:02;;;;;;;6.43;2.75;;;15.90;99.90;;;;;;5019977;28;20060;-73
2022/07/01 05:53:28;;;;;;;8.90;3.92;;;15.90;99.90;;;;;;5021756;28;20108;-72
2022/07/01 05:55:53;;;;;;;6.45;3.83;;;15.90;99.90;;;;;;5019984;28;20032;-74
2022/07/01 05:58:19;;;;;;;8.85;4.63;;;15.90;99.90;;;;;;5022860;28;20883;-74
2022/07/01 06:00:44;;;;;;;8.35;3.03;;;16.00;99.90;;;;;;5005985;28;20031;-73
2022/07/01 06:03:11;;;;;;;4.85;4.30;;;16.00;99.90;;;;;;5021699;28;20519;-74
2022/07/01 06:05:36;;;;;;;9.48;3.90;;;16.00;99.90;;;;;;4990141;28;20389;-73
2022/07/01 06:08:03;;;;;;;5.68;4.25;;;15.90;99.90;;;;;;5005750;28;20021;-74
2022/07/01 06:10:28;;;;;;;4.45;3.05;;;16.00;99.90;;;;;;5040735;28;20059;-73
2022/07/01 06:12:54;;;;;;;6.78;3.63;;;16.00;99.90;;;;;;5004324;28;20485;-72
2022/07/01 06:15:19;;;;;;;7.63;4.53;;;16.10;99.90;;;;;;5019788;28;20477;-71
2022/07/01 06:17:45;;;;;;;6.03;4.15;;;16.20;99.90;;;;;;5018394;28;20029;-72
2022/07/01 06:20:10;;;;;;;6.75;4.00;;;16.20;99.90;;;;;;5008731;28;20492;-73
2022/07/01 06:22:36;;;;;;;5.15;3.70;;;16.10;99.90;;;;;;5005893;28;20378;-75
2022/07/01 06:25:02;;;;;;;7.40;4.63;;;16.10;99.90;;;;;;5002820;28;20028;-72
2022/07/01 06:27:28;;;;;;;3.85;2.90;;;16.10;99.90;;;;;;5021056;28;20064;-73
2022/07/01 06:29:53;;;;;;;7.90;5.03;;;16.10;99.90;;;;;;5000984;28;20037;-73
2022/07/01 06:32:19;;;;;;;9.77;5.68;;;16.20;99.90;;;;;;5015244;28;20396;-73
2022/07/01 06:34:44;;;;;;;12.70;6.10;;;16.20;99.90;;;;;;5018201;28;20435;-73
2022/07/01 06:37:10;;;;;;;7.35;5.43;;;16.30;99.90;;;;;;4988348;28;20561;-73
2022/07/01 06:39:36;;;;;;;9.10;4.30;;;16.50;99.90;;;;;;5001855;28;20052;-73
2022/07/01 06:42:01;;;;;;;6.25;4.00;;;16.70;99.90;;;;;;5008070;28;20507;-73
2022/07/01 06:44:27;;;;;;;10.18;3.90;;;16.80;99.90;;;;;;5005559;28;20056;-73
2022/07/01 06:46:52;;;;;;;7.05;3.53;;;16.90;99.90;;;;;;5025789;28;20396;-73
2022/07/01 06:49:18;;;;;;;5.65;3.88;;;17.00;99.90;;;;;;4970001;28;20022;-73
2022/07/01 06:51:43;;;;;;;8.20;3.92;;;17.30;99.90;;;;;;4984210;28;20026;-73
2022/07/01 06:54:09;;;;;;;6.82;3.63;;;17.40;99.90;;;;;;5016893;28;20025;-73
2022/07/01 06:56:34;;;;;;;5.07;3.47;;;17.50;99.90;;;;;;5017625;28;20044;-73
2022/07/01 06:59:01;;;;;;;6.93;4.35;;;17.40;99.90;;;;;;5021880;28;20038;-73
2022/07/01 07:01:27;;;;;;;6.65;3.65;;;17.60;99.90;;;;;;5022762;28;20437;-74
2022/07/01 07:03:52;;;;;;;4.70;3.53;;;17.80;99.90;;;;;;5019444;28;20030;-74
2022/07/01 07:06:18;;;;;;;7.03;3.78;;;17.90;99.80;;;;;;5019056;28;20488;-73
2022/07/01 07:08:43;;;;;;;8.40;3.72;;;18.10;99.90;;;;;;4996018;28;20076;-75
2022/07/01 07:11:09;;;;;;;6.75;3.22;;;18.20;99.90;;;;;;4998043;28;20396;-75
2022/07/01 07:13:35;;;;;;;6.05;3.90;;;18.30;99.90;;;;;;5007741;28;20111;-74
2022/07/01 07:16:01;;;;;;;7.20;3.40;;;18.40;99.90;;;;;;5003350;28;20039;-74
2022/07/01 07:18:27;;;;;;;9.73;3.83;;;18.60;99.50;;;;;;5040919;28;20033;-74
2022/07/01 07:20:52;;;;;;;4.07;3.55;;;18.90;99.90;;;;;;5002469;28;20033;-73
2022/07/01 07:23:18;;;;;;;7.00;3.53;;;19.20;99.90;;;;;;5017608;28;20037;-74
2022/07/01 07:25:43;;;;;;;7.35;3.05;;;19.40;99.80;;;;;;5021676;28;20035;-74
2022/07/01 07:28:09;;;;;;;3.75;3.17;;;19.10;99.20;;;;;;5008416;28;20029;-74
2022/07/01 07:30:35;;;;;;;9.05;3.15;;;19.70;98.60;;;;;;5006685;28;20487;-74
2022/07/01 07:33:00;;;;;;;4.25;3.10;;;19.90;97.30;;;;;;4990198;28;20082;-74
2022/07/01 07:35:26;;;;;;;5.03;3.13;;;20.30;99.90;;;;;;5022450;28;20112;-75
2022/07/01 07:37:51;;;;;;;5.82;3.28;;;20.40;97.60;;;;;;5021215;28;20053;-74
2022/07/01 07:40:19;;;;;;;6.65;2.80;;;20.30;96.20;;;;;;5007377;28;20120;-74
2022/07/01 07:42:46;;;;;;;6.65;3.30;;;20.60;96.80;;;;;;5020239;28;20037;-75
2022/07/01 07:45:13;;;;;;;4.70;3.25;;;21.10;97.00;;;;;;5019479;28;20041;-75
2022/07/01 07:47:43;;;;;;;4.40;3.25;;;20.80;94.70;;;;;;5002082;28;20494;-75
2022/07/01 07:50:09;;;;;;;3.83;3.03;;;20.40;95.30;;;;;;5008439;28;20428;-74
2022/07/01 07:52:35;;;;;;;8.38;3.33;;;20.20;94.80;;;;;;5016664;28;20021;-75
2022/07/01 07:55:00;;;;;;;4.55;2.80;;;20.30;94.90;;;;;;5006832;28;20029;-75
2022/07/01 07:57:26;;;;;;;4.25;2.63;;;20.70;97.90;;;;;;5001804;28;20041;-74
2022/07/01 07:59:51;;;;;;;8.55;3.70;;;21.00;94.00;;;;;;5020818;28;20037;-74
2022/07/01 08:02:17;;;;;;;4.53;2.72;;;20.70;95.50;;;;;;5022663;28;20035;-76
2022/07/01 08:04:42;;;;;;;5.70;2.88;;;21.20;95.40;;;;;;5020719;28;20374;-74
2022/07/01 08:07:08;;;;;;;8.05;3.15;;;21.40;97.00;;;;;;4986237;28;20021;-75
2022/07/01 08:09:34;;;;;;;6.40;2.33;;;21.50;94.70;;;;;;5006015;28;20029;-74
2022/07/01 08:12:00;;;;;;;4.47;3.17;;;20.70;92.80;;;;;;5018685;28;20040;-76
2022/07/01 08:14:26;;;;;;;5.95;2.95;;;20.10;93.80;;;;;;5021708;28;20524;-74
2022/07/01 08:16:52;;;;;;;3.33;2.58;;;19.80;93.40;;;;;;5020539;28;20049;-75
2022/07/01 08:19:17;;;;;;;9.85;3.38;;;19.90;94.10;;;;;;5038736;28;20051;-76
2022/07/01 08:21:43;;;;;;;6.10;3.05;;;20.10;93.40;;;;;;5021930;28;20044;-75
2022/07/01 08:24:08;;;;;;;9.45;3.95;;;20.60;93.50;;;;;;5007853;28;20079;-75
2022/07/01 08:26:34;;;;;;;5.22;2.88;;;20.70;94.00;;;;;;5039924;28;20025;-74
2022/07/01 08:28:59;;;;;;;4.03;2.83;;;20.70;92.30;;;;;;5018673;28;20029;-74
2022/07/01 08:31:25;;;;;;;6.50;3.28;;;20.50;92.80;;;;;;4993283;28;20108;-76
2022/07/01 08:33:50;;;;;;;5.90;2.95;;;21.00;93.70;;;;;;5003523;28;20439;-75
2022/07/01 08:36:16;;;;;;;3.75;2.20;;;21.50;93.20;;;;;;5021267;28;20033;-78
2022/07/01 08:38:42;;;;;;;6.72;3.28;;;22.00;93.10;;;;;;5004147;28;20034;-78
2022/07/01 08:41:07;;;;;;;2.95;2.53;;;21.90;90.80;;;;;;5020803;28;20029;-77
2022/07/01 08:43:33;;;;;;;4.95;2.47;;;21.60;91.40;;;;;;5005194;28;20030;-78
2022/07/01 08:46:01;;;;;;;2.45;2.08;;;22.30;90.00;;;;;;5004650;28;20044;-78
2022/07/01 08:48:28;;;;;;;4.72;3.15;;;22.30;90.90;;;;;;4993036;28;20061;-78
2022/07/01 08:50:53;;;;;;;4.43;2.60;;;23.20;93.40;;;;;;5005238;28;20033;-78
2022/07/01 08:53:19;;;;;;;2.28;2.17;;;23.30;89.10;;;;;;5017978;28;20033;-79
2022/07/01 08:58:30;;;;;;;4.15;2.70;;;23.90;90.00;;;;;;4969824;28;20725;-79
2022/07/01 09:01:20;;;;;;;6.57;3.22;;;23.80;87.60;;;;;;5023083;28;20038;-79
2022/07/01 09:03:46;;;;;;;4.32;2.65;;;24.60;92.50;;;;;;5003931;28;20041;-80
2022/07/01 09:06:13;;;;;;;2.50;2.30;;;25.10;83.00;;;;;;5012159;28;20044;-80
2022/07/01 09:08:38;;;;;;;5.22;2.00;;;25.20;89.70;;;;;;5043151;28;20029;-81
2022/07/01 09:11:20;;;;;;;3.78;1.65;;;25.20;85.40;;;;;;5007699;28;20051;-80
2022/07/01 09:13:45;;;;;;;1.80;1.70;;;25.60;87.90;;;;;;5022431;28;20335;-80
2022/07/01 09:16:15;;;;;;;2.58;1.85;;;25.90;85.20;;;;;;5024032;28;20040;-80
2022/07/01 09:19:01;;;;;;;2.65;1.60;;;26.10;83.50;;;;;;5006608;28;20036;-81
2022/07/01 09:21:30;;;;;;;3.17;1.90;;;25.40;76.70;;;;;;4997546;28;20054;-81
2022/07/01 09:24:03;;;;;;;4.15;2.13;;;24.50;75.80;;;;;;5020889;28;20087;-81
2022/07/01 09:26:28;;;;;;;2.15;1.83;;;25.20;84.30;;;;;;5002855;28;20665;-82
2022/07/01 09:28:55;;;;;;;3.20;1.92;;;25.30;77.20;;;;;;5023268;28;20035;-82
2022/07/01 09:31:21;;;;;;;5.03;1.83;;;25.80;81.50;;;;;;5008293;28;20037;-82
2022/07/01 09:33:47;;;;;;;2.05;1.55;;;25.40;79.90;;;;;;4992826;28;20038;-82
2022/07/01 09:36:16;;;;;;;4.50;1.75;;;25.80;74.10;;;;;;5026183;28;26096;-82
2022/07/01 09:38:47;;;;;;;2.47;1.50;;;26.10;74.60;;;;;;5011331;28;20376;-80
2022/07/01 09:41:13;;;;;;;5.75;1.58;;;26.50;75.60;;;;;;5011075;28;20088;-82
2022/07/01 09:43:39;;;;;;;1.67;1.20;;;26.50;74.20;;;;;;5023496;28;20047;-82
2022/07/01 09:46:08;;;;;;;1.80;1.48;;;26.70;74.70;;;;;;5023128;28;20390;-81
2022/07/01 09:48:34;;;;;;;3.30;1.40;;;26.70;74.60;;;;;;5002623;28;20032;-80
2022/07/01 09:51:09;;;;;;;2.72;1.30;;;26.70;71.10;;;;;;5023276;28;20037;-81
2022/07/01 09:53:35;;;;;;;1.55;1.08;;;26.20;67.20;;;;;;5023460;28;20040;-81
2022/07/01 09:56:01;;;;;;;4.25;1.40;;;26.10;68.00;;;;;;5004222;28;20033;-81
2022/07/01 09:58:26;;;;;;;1.85;1.13;;;26.50;72.30;;;;;;4993253;28;20033;-81
2022/07/01 10:00:52;;;;;;;2.22;1.25;;;26.50;69.40;;;;;;5009073;28;20030;-80
2022/07/01 10:03:18;;;;;;;2.40;1.23;;;26.70;69.70;;;;;;5005560;28;20541;-80
2022/07/01 10:06:05;;;;;;;5.28;2.72;;;27.00;69.50;;;;;;5020728;28;20033;-80
2022/07/01 10:09:06;;;;;;;1.80;0.70;;;27.20;68.70;;;;;;5026913;28;20037;-80
2022/07/01 10:12:01;;;;;;;0.82;0.80;;;27.10;68.40;;;;;;5008704;28;20022;-81
2022/07/01 10:14:27;;;;;;;4.97;1.30;;;26.70;66.20;;;;;;5019913;28;20512;-80
2022/07/01 10:16:52;;;;;;;2.60;1.02;;;26.80;67.50;;;;;;5019692;28;20033;-81
2022/07/01 10:19:25;;;;;;;1.90;1.27;;;26.90;67.70;;;;;;4995699;28;20044;-81
2022/07/01 10:21:53;;;;;;;5.85;1.13;;;27.10;66.50;;;;;;5038963;28;20029;-80
2022/07/01 10:24:19;;;;;;;1.98;1.00;;;27.30;65.80;;;;;;5011062;28;20048;-79
2022/07/01 10:26:45;;;;;;;3.22;0.90;;;27.60;66.20;;;;;;5020293;28;20396;-81
2022/07/01 10:29:43;;;;;;;1.30;1.00;;;27.80;65.40;;;;;;5009477;28;20512;-80
2022/07/01 10:32:11;;;;;;;1.48;0.85;;;28.00;63.50;;;;;;4985613;28;20141;-80
2022/07/01 10:34:38;;;;;;;3.35;0.70;;;27.90;63.40;;;;;;5006417;28;20033;-79
2022/07/01 10:37:09;;;;;;;1.63;0.80;;;28.20;61.20;;;;;;4991437;28;20033;-79
2022/07/01 10:39:57;;;;;;;3.33;1.15;;;27.40;58.70;;;;;;5006241;28;20492;-79
2022/07/01 10:42:27;;;;;;;1.38;0.75;;;27.30;63.90;;;;;;5018512;28;20045;-80
2022/07/01 10:45:02;;;;;;;1.73;0.57;;;28.20;60.00;;;;;;5003562;28;20033;-80
2022/07/01 10:47:28;;;;;;;3.03;1.30;;;27.80;57.80;;;;;;5009645;28;20488;-80
2022/07/01 10:49:57;;;;;;;4.45;0.82;;;28.50;61.60;;;;;;5007964;28;20037;-80
2022/07/01 10:52:23;;;;;;;1.92;0.77;;;28.90;59.70;;;;;;5005944;28;20086;-80
2022/07/01 10:54:53;;;;;;;2.05;0.90;;;28.90;58.10;;;;;;5022794;28;20528;-79
2022/07/01 10:57:18;;;;;;;0.80;0.60;;;29.20;57.50;;;;;;4998252;28;20059;-79
2022/07/01 10:59:48;;;;;;;4.53;0.40;;;29.20;58.40;;;;;;5023771;28;20469;-80
2022/07/01 11:02:37;;;;;;;3.45;0.52;;;29.40;57.90;;;;;;5027091;28;20038;-80
2022/07/01 11:05:06;;;;;;;2.13;0.60;;;29.70;57.40;;;;;;5026914;28;20029;-77
2022/07/01 11:07:35;;;;;;;0.80;0.52;;;29.20;55.20;;;;;;5007218;28;20198;-79
2022/07/01 11:10:01;;;;;;;0.88;0.45;;;28.80;55.20;;;;;;4994140;28;20037;-81
2022/07/01 11:12:28;;;;;;;0.50;0.45;;;29.40;57.30;;;;;;5022740;28;20476;-79
2022/07/01 11:14:54;;;;;;;2.20;0.60;;;29.90;55.00;;;;;;5019091;28;20497;-79
2022/07/01 11:17:20;;;;;;;2.53;0.70;;;30.30;52.80;;;;;;5022723;28;20555;-80
2022/07/01 11:19:52;;;;;;;0.98;0.50;;;30.40;54.00;;;;;;5019705;28;20033;-81
2022/07/01 11:22:21;;;;;;;2.35;0.50;;;30.60;54.30;;;;;;5021452;28;20037;-82
2022/07/01 11:24:52;;;;;;;2.67;0.90;;;30.90;53.40;;;;;;5001926;28;20080;-82
2022/07/01 11:27:17;;;;;;;1.52;0.85;;;30.90;52.30;;;;;;5005707;28;20130;-81
2022/07/01 11:29:43;;;;;;;3.58;0.57;;;31.00;51.20;;;;;;4997792;28;20121;-78
2022/07/01 11:32:08;;;;;;;2.45;0.88;;;30.40;52.90;;;;;;5020974;28;20037;-81
2022/07/01 11:34:35;;;;;;;1.23;0.60;;;30.90;51.30;;;;;;5019156;28;20088;-81
2022/07/01 11:40:01;;;;;;;2.05;0.60;;;31.00;51.60;;;;;;5011909;28;20036;-82
2022/07/01 11:42:27;;;;;;;3.25;1.02;;;31.20;52.40;;;;;;5003733;28;20040;-80
2022/07/01 11:44:53;;;;;;;2.08;0.68;;;31.10;51.40;;;;;;5003579;28;20047;-81
2022/07/01 11:47:25;;;;;;;4.13;0.93;;;30.90;48.50;;;;;;5037437;28;20025;-82
2022/07/01 11:49:50;;;;;;;4.43;1.05;;;30.60;48.30;;;;;;5018805;28;20124;-79
2022/07/01 11:52:17;;;;;;;1.35;0.80;;;30.90;52.00;;;;;;4992923;28;20037;-81
2022/07/01 11:54:46;;;;;;;2.13;0.60;;;30.30;49.20;;;;;;4991468;28;20057;-82
2022/07/01 11:57:22;;;;;;;1.73;0.73;;;30.10;49.40;;;;;;5019940;28;20037;-81
2022/07/01 11:59:48;;;;;;;1.92;1.10;;;31.30;50.10;;;;;;5003946;28;20524;-82
2022/07/01 12:02:15;;;;;;;2.33;0.88;;;31.10;47.30;;;;;;5001367;28;20033;-80
2022/07/01 12:04:42;;;;;;;2.20;0.60;;;30.50;47.90;;;;;;5002234;28;20021;-83
2022/07/01 12:07:07;;;;;;;3.97;1.05;;;30.30;49.60;;;;;;5004760;28;20385;-84
2022/07/01 12:09:33;;;;;;;3.17;1.00;;;31.40;51.20;;;;;;5002724;28;20025;-81
2022/07/01 12:11:59;;;;;;;1.02;0.70;;;32.60;48.50;;;;;;5002338;28;20112;-83
2022/07/01 12:14:26;;;;;;;2.05;1.00;;;32.50;48.20;;;;;;5021236;28;20033;-78
2022/07/01 12:16:56;;;;;;;1.50;0.80;;;31.90;48.00;;;;;;5019689;28;20096;-81
2022/07/01 12:19:28;;;;;;;1.33;0.70;;;31.80;49.00;;;;;;4991550;28;20052;-81
2022/07/01 12:21:58;;;;;;;1.77;0.75;;;31.60;48.40;;;;;;4667934;28;10001187;-81
2022/07/01 12:24:24;;;;;;;4.65;0.90;;;31.60;48.20;;;;;;4646323;28;9999868;-81
2022/07/01 12:27:08;;;;;;;5.60;1.15;;;31.20;48.90;;;;;;4984377;28;20065;-81
2022/07/01 12:29:45;;;;;;;1.58;0.50;;;31.40;48.90;;;;;;5015535;28;20029;-82
2022/07/01 12:32:12;;;;;;;14.75;1.00;;;31.50;50.30;;;;;;5034527;28;20491;-82
2022/07/01 12:34:41;;;;;;;3.17;0.80;;;31.70;49.70;;;;;;5022199;28;20025;-80
2022/07/01 12:37:20;;;;;;;3.20;0.77;;;31.20;48.00;;;;;;5024290;28;20455;-81
2022/07/01 12:39:48;;;;;;;1.40;0.70;;;31.70;47.50;;;;;;4987885;28;20040;-80
2022/07/01 12:42:24;;;;;;;2.72;0.55;;;31.90;47.70;;;;;;5020803;28;20102;-80
2022/07/01 12:44:51;;;;;;;1.05;0.73;;;31.50;46.00;;;;;;4987503;28;20040;-80
2022/07/01 12:47:37;;;;;;;2.30;0.50;;;31.80;47.40;;;;;;5026264;28;20618;-79
2022/07/01 12:50:17;;;;;;;1.80;0.68;;;32.10;47.10;;;;;;5012283;28;20370;-78
2022/07/01 12:53:09;;;;;;;1.77;0.55;;;32.40;46.40;;;;;;4993080;28;20025;-75
2022/07/01 12:55:39;;;;;;;3.25;0.80;;;32.40;45.90;;;;;;5001780;28;20574;-78
2022/07/01 12:58:09;;;;;;;9.63;2.85;;;32.20;46.00;;;;;;5012476;28;20489;-79
2022/07/01 13:00:34;;;;;;;0.95;0.50;;;32.50;46.40;;;;;;4990927;28;20026;-77
2022/07/01 13:03:01;;;;;;;1.10;0.50;;;32.70;46.00;;;;;;5040271;28;20037;-78